sensor_id;sensor_type;location;lat;lon;timestamp;pressure;altitude;pressure_sealevel;temperature;humidity
84888;BME280;75150;54.494;18.518;2024-02-26T00:01:21;99579.34;;;2.30;87.95
84888;BME280;75150;54.494;18.518;2024-02-26T00:03:31;99582.09;;;2.43;88.16
84888;BME280;75150;54.494;18.518;2024-02-26T00:05:33;99578.00;;;2.53;88.03
84888;BME280;75150;54.494;18.518;2024-02-26T00:07:34;99586.03;;;2.64;88.06
84888;BME280;75150;54.494;18.518;2024-02-26T00:09:35;99581.94;;;2.74;88.00
84888;BME280;75150;54.494;18.518;2024-02-26T00:11:37;99577.84;;;2.84;87.99
84888;BME280;75150;54.494;18.518;2024-02-26T00:13:39;99580.84;;;2.92;87.87
84888;BME280;75150;54.494;18.518;2024-02-26T00:15:40;99587.19;;;3.03;87.81
84888;BME280;75150;54.494;18.518;2024-02-26T00:17:43;99584.00;;;3.12;87.50
84888;BME280;75150;54.494;18.518;2024-02-26T00:19:44;99583.34;;;3.22;87.54
84888;BME280;75150;54.494;18.518;2024-02-26T00:21:46;99586.25;;;3.32;87.48
84888;BME280;75150;54.494;18.518;2024-02-26T00:23:49;99589.13;;;3.42;87.67
84888;BME280;75150;54.494;18.518;2024-02-26T00:25:50;99586.84;;;3.50;87.19
84888;BME280;75150;54.494;18.518;2024-02-26T00:27:52;99588.25;;;3.56;87.41
84888;BME280;75150;54.494;18.518;2024-02-26T00:29:53;99587.75;;;3.63;87.43
84888;BME280;75150;54.494;18.518;2024-02-26T00:31:54;99582.13;;;3.69;87.21
84888;BME280;75150;54.494;18.518;2024-02-26T00:33:57;99580.16;;;3.73;87.17
84888;BME280;75150;54.494;18.518;2024-02-26T00:35:59;99573.81;;;3.77;87.45
84888;BME280;75150;54.494;18.518;2024-02-26T00:38:00;99571.81;;;3.80;87.12
84888;BME280;75150;54.494;18.518;2024-02-26T00:40:02;99571.81;;;3.80;87.16
84888;BME280;75150;54.494;18.518;2024-02-26T00:42:04;99567.50;;;3.79;87.26
84888;BME280;75150;54.494;18.518;2024-02-26T00:44:06;99560.59;;;3.78;86.99
84888;BME280;75150;54.494;18.518;2024-02-26T00:46:07;99561.44;;;3.79;87.31
84888;BME280;75150;54.494;18.518;2024-02-26T00:48:08;99562.47;;;3.76;86.88
84888;BME280;75150;54.494;18.518;2024-02-26T00:50:11;99566.88;;;3.76;87.05
84888;BME280;75150;54.494;18.518;2024-02-26T00:52:13;99572.97;;;3.76;87.20
84888;BME280;75150;54.494;18.518;2024-02-26T00:54:14;99566.88;;;3.76;86.91
84888;BME280;75150;54.494;18.518;2024-02-26T00:56:15;99563.22;;;3.78;86.96
84888;BME280;75150;54.494;18.518;2024-02-26T00:58:17;99556.94;;;3.81;87.26
84888;BME280;75150;54.494;18.518;2024-02-26T01:00:19;99568.97;;;3.83;87.42
84888;BME280;75150;54.494;18.518;2024-02-26T01:02:20;99561.75;;;3.87;87.20
84888;BME280;75150;54.494;18.518;2024-02-26T01:04:22;99558.13;;;3.90;87.22
84888;BME280;75150;54.494;18.518;2024-02-26T01:06:24;99557.72;;;3.96;87.36
84888;BME280;75150;54.494;18.518;2024-02-26T01:08:26;99553.84;;;4.01;87.33
84888;BME280;75150;54.494;18.518;2024-02-26T01:10:27;99549.97;;;4.07;87.52
84888;BME280;75150;54.494;18.518;2024-02-26T01:12:29;99547.03;;;4.11;87.23
84888;BME280;75150;54.494;18.518;2024-02-26T01:14:30;99553.69;;;4.17;87.42
84888;BME280;75150;54.494;18.518;2024-02-26T01:16:32;99545.72;;;4.19;87.16
84888;BME280;75150;54.494;18.518;2024-02-26T01:18:33;99540.47;;;4.19;87.15
84888;BME280;75150;54.494;18.518;2024-02-26T01:20:35;99544.03;;;4.18;86.97
84888;BME280;75150;54.494;18.518;2024-02-26T01:22:37;99545.06;;;4.15;87.19
84888;BME280;75150;54.494;18.518;2024-02-26T01:24:39;99542.66;;;4.12;86.81
84888;BME280;75150;54.494;18.518;2024-02-26T01:26:40;99546.31;;;4.09;87.00
84888;BME280;75150;54.494;18.518;2024-02-26T01:28:42;99535.31;;;4.04;86.93
84888;BME280;75150;54.494;18.518;2024-02-26T01:30:43;99540.84;;;4.00;87.29
84888;BME280;75150;54.494;18.518;2024-02-26T01:32:44;99537.69;;;3.95;86.98
84888;BME280;75150;54.494;18.518;2024-02-26T01:34:46;99538.09;;;3.89;86.86
84888;BME280;75150;54.494;18.518;2024-02-26T01:36:47;99544.56;;;3.83;87.33
84888;BME280;75150;54.494;18.518;2024-02-26T01:38:50;99540.75;;;3.74;87.34
84888;BME280;75150;54.494;18.518;2024-02-26T01:40:51;99542.09;;;3.67;87.30
84888;BME280;75150;54.494;18.518;2024-02-26T01:42:53;99540.81;;;3.60;87.33
84888;BME280;75150;54.494;18.518;2024-02-26T01:44:55;99539.34;;;3.56;87.64
84888;BME280;75150;54.494;18.518;2024-02-26T01:46:56;99545.03;;;3.48;87.24
84888;BME280;75150;54.494;18.518;2024-02-26T01:48:58;99550.50;;;3.45;87.23
84888;BME280;75150;54.494;18.518;2024-02-26T01:50:59;99556.88;;;3.41;87.55
84888;BME280;75150;54.494;18.518;2024-02-26T01:53:01;99552.00;;;3.35;87.76
84888;BME280;75150;54.494;18.518;2024-02-26T01:55:04;99551.56;;;3.29;87.75
84888;BME280;75150;54.494;18.518;2024-02-26T01:57:07;99547.72;;;3.20;87.49
84888;BME280;75150;54.494;18.518;2024-02-26T01:59:09;99547.25;;;3.13;87.45
84888;BME280;75150;54.494;18.518;2024-02-26T02:01:12;99551.22;;;3.06;87.46
84888;BME280;75150;54.494;18.518;2024-02-26T02:03:14;99549.91;;;2.99;87.38
84888;BME280;75150;54.494;18.518;2024-02-26T02:05:16;99543.44;;;2.90;87.86
84888;BME280;75150;54.494;18.518;2024-02-26T02:07:18;99544.03;;;2.81;87.71
84888;BME280;75150;54.494;18.518;2024-02-26T02:09:20;99558.41;;;2.74;87.65
84888;BME280;75150;54.494;18.518;2024-02-26T02:11:23;99549.31;;;2.65;87.71
84888;BME280;75150;54.494;18.518;2024-02-26T02:13:24;99552.41;;;2.58;87.96
84888;BME280;75150;54.494;18.518;2024-02-26T02:15:25;99550.16;;;2.52;87.61
84888;BME280;75150;54.494;18.518;2024-02-26T02:17:28;99557.44;;;2.47;88.14
84888;BME280;75150;54.494;18.518;2024-02-26T02:19:29;99554.25;;;2.42;87.76
84888;BME280;75150;54.494;18.518;2024-02-26T02:21:32;99555.47;;;2.36;88.09
84888;BME280;75150;54.494;18.518;2024-02-26T02:23:33;99553.13;;;2.31;88.20
84888;BME280;75150;54.494;18.518;2024-02-26T02:25:35;99557.69;;;2.28;88.15
84888;BME280;75150;54.494;18.518;2024-02-26T02:27:36;99556.19;;;2.24;88.47
84888;BME280;75150;54.494;18.518;2024-02-26T02:29:38;99557.31;;;2.20;88.15
84888;BME280;75150;54.494;18.518;2024-02-26T02:31:39;99554.78;;;2.18;88.26
84888;BME280;75150;54.494;18.518;2024-02-26T02:33:41;99557.47;;;2.17;88.46
84888;BME280;75150;54.494;18.518;2024-02-26T02:35:42;99549.81;;;2.14;88.67
84888;BME280;75150;54.494;18.518;2024-02-26T02:37:45;99550.75;;;2.13;88.30
84888;BME280;75150;54.494;18.518;2024-02-26T02:39:47;99551.75;;;2.10;88.36
84888;BME280;75150;54.494;18.518;2024-02-26T02:41:48;99549.16;;;2.10;88.76
84888;BME280;75150;54.494;18.518;2024-02-26T02:43:49;99545.59;;;2.11;88.60
84888;BME280;75150;54.494;18.518;2024-02-26T02:45:51;99545.59;;;2.11;88.66
84888;BME280;75150;54.494;18.518;2024-02-26T02:47:52;99547.38;;;2.11;88.76
84888;BME280;75150;54.494;18.518;2024-02-26T02:49:54;99546.53;;;2.10;88.82
84888;BME280;75150;54.494;18.518;2024-02-26T02:51:55;99553.53;;;2.10;88.76
84888;BME280;75150;54.494;18.518;2024-02-26T02:53:58;99556.06;;;2.11;88.85
84888;BME280;75150;54.494;18.518;2024-02-26T02:55:59;99556.25;;;2.08;88.74
84888;BME280;75150;54.494;18.518;2024-02-26T02:58:00;99553.72;;;2.07;88.97
84888;BME280;75150;54.494;18.518;2024-02-26T03:00:02;99552.09;;;2.04;88.73
84888;BME280;75150;54.494;18.518;2024-02-26T03:02:04;99558.84;;;2.08;89.41
84888;BME280;75150;54.494;18.518;2024-02-26T03:04:05;99551.56;;;2.13;89.45
84888;BME280;75150;54.494;18.518;2024-02-26T03:06:07;99559.91;;;2.20;89.35
84888;BME280;75150;54.494;18.518;2024-02-26T03:08:08;99550.53;;;2.31;89.73
84888;BME280;75150;54.494;18.518;2024-02-26T03:10:11;99553.25;;;2.44;89.60
84888;BME280;75150;54.494;18.518;2024-02-26T03:12:12;99552.69;;;2.53;89.26
84888;BME280;75150;54.494;18.518;2024-02-26T03:14:14;99555.78;;;2.60;89.51
84888;BME280;75150;54.494;18.518;2024-02-26T03:16:16;99550.16;;;2.66;88.93
84888;BME280;75150;54.494;18.518;2024-02-26T03:18:18;99550.94;;;2.68;89.10
84888;BME280;75150;54.494;18.518;2024-02-26T03:20:19;99549.06;;;2.70;89.15
84888;BME280;75150;54.494;18.518;2024-02-26T03:22:21;99550.75;;;2.71;88.78
84888;BME280;75150;54.494;18.518;2024-02-26T03:24:22;99545.63;;;2.70;88.62
84888;BME280;75150;54.494;18.518;2024-02-26T03:26:25;99553.66;;;2.67;88.66
84888;BME280;75150;54.494;18.518;2024-02-26T03:28:27;99545.88;;;2.65;88.98
84888;BME280;75150;54.494;18.518;2024-02-26T03:30:28;99549.53;;;2.62;88.87
84888;BME280;75150;54.494;18.518;2024-02-26T03:32:29;99542.72;;;2.60;89.28
84888;BME280;75150;54.494;18.518;2024-02-26T03:34:31;99550.66;;;2.58;89.18
84888;BME280;75150;54.494;18.518;2024-02-26T03:36:33;99549.22;;;2.53;88.62
84888;BME280;75150;54.494;18.518;2024-02-26T03:38:34;99547.00;;;2.47;88.71
84888;BME280;75150;54.494;18.518;2024-02-26T03:40:35;99546.50;;;2.40;88.56
84888;BME280;75150;54.494;18.518;2024-02-26T03:42:38;99552.94;;;2.34;88.66
84888;BME280;75150;54.494;18.518;2024-02-26T03:44:40;99549.84;;;2.28;88.92
84888;BME280;75150;54.494;18.518;2024-02-26T03:46:41;99556.19;;;2.24;88.97
84888;BME280;75150;54.494;18.518;2024-02-26T03:48:42;99554.59;;;2.21;88.91
84888;BME280;75150;54.494;18.518;2024-02-26T03:50:44;99552.22;;;2.17;89.10
84888;BME280;75150;54.494;18.518;2024-02-26T03:52:45;99549.91;;;2.12;89.30
84888;BME280;75150;54.494;18.518;2024-02-26T03:54:47;99546.72;;;2.07;89.36
84888;BME280;75150;54.494;18.518;2024-02-26T03:56:48;99550.44;;;2.03;89.14
84888;BME280;75150;54.494;18.518;2024-02-26T03:58:51;99545.28;;;2.01;89.02
84888;BME280;75150;54.494;18.518;2024-02-26T04:00:52;99544.44;;;2.01;89.12
84888;BME280;75150;54.494;18.518;2024-02-26T04:02:53;99549.69;;;2.01;89.31
84888;BME280;75150;54.494;18.518;2024-02-26T04:04:55;99554.25;;;1.97;89.11
84888;BME280;75150;54.494;18.518;2024-02-26T04:06:56;99551.63;;;1.97;89.24
84888;BME280;75150;54.494;18.518;2024-02-26T04:08:58;99556.00;;;1.97;89.27
84888;BME280;75150;54.494;18.518;2024-02-26T04:10:59;99549.13;;;1.96;89.73
84888;BME280;75150;54.494;18.518;2024-02-26T04:13:00;99553.50;;;1.95;89.64
84888;BME280;75150;54.494;18.518;2024-02-26T04:15:04;99559.66;;;1.94;89.57
84888;BME280;75150;54.494;18.518;2024-02-26T04:17:06;99564.00;;;1.94;89.26
84888;BME280;75150;54.494;18.518;2024-02-26T04:19:08;99563.16;;;1.93;89.46
84888;BME280;75150;54.494;18.518;2024-02-26T04:21:09;99556.53;;;1.88;89.33
84888;BME280;75150;54.494;18.518;2024-02-26T04:23:10;99556.63;;;1.86;89.46
84888;BME280;75150;54.494;18.518;2024-02-26T04:25:12;99555.97;;;1.83;89.21
84888;BME280;75150;54.494;18.518;2024-02-26T04:27:13;99549.22;;;1.79;89.24
84888;BME280;75150;54.494;18.518;2024-02-26T04:29:14;99551.91;;;1.77;89.66
84888;BME280;75150;54.494;18.518;2024-02-26T04:31:17;99550.31;;;1.74;89.33
84888;BME280;75150;54.494;18.518;2024-02-26T04:33:19;99556.47;;;1.73;89.35
84888;BME280;75150;54.494;18.518;2024-02-26T04:35:20;99549.66;;;1.71;89.63
84888;BME280;75150;54.494;18.518;2024-02-26T04:37:21;99548.75;;;1.72;89.81
84888;BME280;75150;54.494;18.518;2024-02-26T04:39:23;99546.03;;;1.73;90.02
84888;BME280;75150;54.494;18.518;2024-02-26T04:41:24;99550.31;;;1.74;89.65
84888;BME280;75150;54.494;18.518;2024-02-26T04:43:26;99554.72;;;1.74;89.92
84888;BME280;75150;54.494;18.518;2024-02-26T04:45:27;99557.50;;;1.71;89.83
84888;BME280;75150;54.494;18.518;2024-02-26T04:47:30;99560.16;;;1.69;89.57
84888;BME280;75150;54.494;18.518;2024-02-26T04:49:31;99555.97;;;1.67;89.42
84888;BME280;75150;54.494;18.518;2024-02-26T04:51:33;99558.56;;;1.67;89.69
84888;BME280;75150;54.494;18.518;2024-02-26T04:53:34;99563.72;;;1.68;90.01
84888;BME280;75150;54.494;18.518;2024-02-26T04:55:36;99558.44;;;1.70;90.12
84888;BME280;75150;54.494;18.518;2024-02-26T04:57:37;99563.56;;;1.71;89.66
84888;BME280;75150;54.494;18.518;2024-02-26T04:59:38;99568.69;;;1.73;89.83
84888;BME280;75150;54.494;18.518;2024-02-26T05:01:40;99559.94;;;1.74;89.83
84888;BME280;75150;54.494;18.518;2024-02-26T05:03:43;99565.16;;;1.74;89.96
84888;BME280;75150;54.494;18.518;2024-02-26T05:05:44;99569.63;;;1.72;89.75
84888;BME280;75150;54.494;18.518;2024-02-26T05:07:46;99560.25;;;1.68;89.91
84888;BME280;75150;54.494;18.518;2024-02-26T05:09:47;99570.78;;;1.66;89.60
84888;BME280;75150;54.494;18.518;2024-02-26T05:11:49;99574.34;;;1.65;89.90
84888;BME280;75150;54.494;18.518;2024-02-26T05:13:50;99579.75;;;1.62;89.56
84888;BME280;75150;54.494;18.518;2024-02-26T05:15:52;99582.34;;;1.62;89.66
84888;BME280;75150;54.494;18.518;2024-02-26T05:17:53;99591.94;;;1.62;90.12
84888;BME280;75150;54.494;18.518;2024-02-26T05:19:56;99595.41;;;1.62;90.00
84888;BME280;75150;54.494;18.518;2024-02-26T05:21:57;99600.44;;;1.65;90.15
84888;BME280;75150;54.494;18.518;2024-02-26T05:23:59;99597.00;;;1.65;89.96
84888;BME280;75150;54.494;18.518;2024-02-26T05:26:00;99600.53;;;1.64;89.99
84888;BME280;75150;54.494;18.518;2024-02-26T05:28:01;99607.44;;;1.65;90.24
84888;BME280;75150;54.494;18.518;2024-02-26T05:30:03;99609.97;;;1.66;90.52
84888;BME280;75150;54.494;18.518;2024-02-26T05:32:06;99612.56;;;1.66;90.17
84888;BME280;75150;54.494;18.518;2024-02-26T05:34:07;99619.47;;;1.67;90.05
84888;BME280;75150;54.494;18.518;2024-02-26T05:36:10;99624.56;;;1.70;90.38
84888;BME280;75150;54.494;18.518;2024-02-26T05:38:18;99621.03;;;1.71;90.76
84888;BME280;75150;54.494;18.518;2024-02-26T05:40:20;99637.84;;;1.66;90.63
84888;BME280;75150;54.494;18.518;2024-02-26T05:42:21;99633.06;;;1.58;90.61
84888;BME280;75150;54.494;18.518;2024-02-26T05:44:22;99636.75;;;1.54;90.27
84888;BME280;75150;54.494;18.518;2024-02-26T05:46:27;99636.16;;;1.49;90.22
84888;BME280;75150;54.494;18.518;2024-02-26T05:48:28;99640.88;;;1.42;90.14
84888;BME280;75150;54.494;18.518;2024-02-26T05:50:30;99635.16;;;1.36;89.94
84888;BME280;75150;54.494;18.518;2024-02-26T05:52:32;99637.91;;;1.33;90.15
84888;BME280;75150;54.494;18.518;2024-02-26T05:54:34;99642.38;;;1.31;90.32
84888;BME280;75150;54.494;18.518;2024-02-26T05:56:35;99646.06;;;1.27;90.28
84888;BME280;75150;54.494;18.518;2024-02-26T05:58:37;99647.91;;;1.25;89.99
84888;BME280;75150;54.494;18.518;2024-02-26T06:00:38;99647.09;;;1.24;90.18
84888;BME280;75150;54.494;18.518;2024-02-26T06:02:39;99649.59;;;1.26;89.93
84888;BME280;75150;54.494;18.518;2024-02-26T06:04:41;99653.91;;;1.27;90.51
84888;BME280;75150;54.494;18.518;2024-02-26T06:06:42;99652.88;;;1.29;90.18
84888;BME280;75150;54.494;18.518;2024-02-26T06:08:45;99660.53;;;1.32;90.36
84888;BME280;75150;54.494;18.518;2024-02-26T06:10:46;99663.44;;;1.43;90.29
84888;BME280;75150;54.494;18.518;2024-02-26T06:12:48;99662.47;;;1.62;90.42
84888;BME280;75150;54.494;18.518;2024-02-26T06:14:49;99666.50;;;1.83;90.69
84888;BME280;75150;54.494;18.518;2024-02-26T06:16:51;99671.63;;;2.00;90.83
84888;BME280;75150;54.494;18.518;2024-02-26T06:18:52;99666.28;;;2.18;90.22
84888;BME280;75150;54.494;18.518;2024-02-26T06:20:54;99663.59;;;2.35;90.21
84888;BME280;75150;54.494;18.518;2024-02-26T06:22:55;99665.69;;;2.44;90.15
84888;BME280;75150;54.494;18.518;2024-02-26T06:24:58;99668.69;;;2.52;89.96
84888;BME280;75150;54.494;18.518;2024-02-26T06:27:00;99661.06;;;2.63;89.67
84888;BME280;75150;54.494;18.518;2024-02-26T06:29:01;99659.50;;;2.75;89.47
84888;BME280;75150;54.494;18.518;2024-02-26T06:31:03;99666.06;;;2.82;89.58
84888;BME280;75150;54.494;18.518;2024-02-26T06:33:05;99665.34;;;2.94;89.79
84888;BME280;75150;54.494;18.518;2024-02-26T06:35:06;99671.41;;;3.09;89.58
84888;BME280;75150;54.494;18.518;2024-02-26T06:37:08;99676.75;;;3.22;89.22
84888;BME280;75150;54.494;18.518;2024-02-26T06:39:09;99682.38;;;3.30;89.26
84888;BME280;75150;54.494;18.518;2024-02-26T06:41:12;99679.28;;;3.38;89.37
84888;BME280;75150;54.494;18.518;2024-02-26T06:43:13;99681.53;;;3.44;88.85
84888;BME280;75150;54.494;18.518;2024-02-26T06:45:15;99683.00;;;3.48;89.27
84888;BME280;75150;54.494;18.518;2024-02-26T06:47:16;99681.63;;;3.57;88.72
84888;BME280;75150;54.494;18.518;2024-02-26T06:49:18;99683.28;;;3.72;89.08
84888;BME280;75150;54.494;18.518;2024-02-26T06:51:19;99685.59;;;3.91;88.68
84888;BME280;75150;54.494;18.518;2024-02-26T06:53:20;99688.44;;;4.15;89.22
84888;BME280;75150;54.494;18.518;2024-02-26T06:55:22;99681.22;;;4.58;88.53
84888;BME280;75150;54.494;18.518;2024-02-26T06:57:25;99677.75;;;5.10;88.34
84888;BME280;75150;54.494;18.518;2024-02-26T06:59:26;99681.47;;;5.69;87.77
84888;BME280;75150;54.494;18.518;2024-02-26T07:01:28;99680.44;;;6.21;87.11
84888;BME280;75150;54.494;18.518;2024-02-26T07:03:29;99675.50;;;6.75;86.73
84888;BME280;75150;54.494;18.518;2024-02-26T07:05:31;99677.44;;;7.53;85.60
84888;BME280;75150;54.494;18.518;2024-02-26T07:07:32;99676.16;;;8.57;84.85
84888;BME280;75150;54.494;18.518;2024-02-26T07:09:33;99671.97;;;9.58;83.83
84888;BME280;75150;54.494;18.518;2024-02-26T07:11:35;99679.31;;;10.54;82.78
84888;BME280;75150;54.494;18.518;2024-02-26T07:13:38;99684.75;;;11.38;81.93
84888;BME280;75150;54.494;18.518;2024-02-26T07:15:39;99677.09;;;12.10;81.53
84888;BME280;75150;54.494;18.518;2024-02-26T07:17:40;99680.34;;;12.84;80.24
84888;BME280;75150;54.494;18.518;2024-02-26T07:19:42;99685.97;;;13.51;79.13
84888;BME280;75150;54.494;18.518;2024-02-26T07:21:43;99686.91;;;14.10;78.18
84888;BME280;75150;54.494;18.518;2024-02-26T07:23:45;99690.72;;;14.58;77.18
84888;BME280;75150;54.494;18.518;2024-02-26T07:25:46;99689.91;;;14.98;76.09
84888;BME280;75150;54.494;18.518;2024-02-26T07:27:48;99692.56;;;15.31;75.86
84888;BME280;75150;54.494;18.518;2024-02-26T07:29:51;99687.75;;;15.90;74.79
84888;BME280;75150;54.494;18.518;2024-02-26T07:31:52;99702.00;;;16.44;74.06
84888;BME280;75150;54.494;18.518;2024-02-26T07:33:53;99697.59;;;16.82;73.29
84888;BME280;75150;54.494;18.518;2024-02-26T07:35:55;99689.88;;;17.10;72.39
84888;BME280;75150;54.494;18.518;2024-02-26T07:37:56;99695.72;;;17.28;71.89
84888;BME280;75150;54.494;18.518;2024-02-26T07:39:58;99690.38;;;17.43;71.43
84888;BME280;75150;54.494;18.518;2024-02-26T07:41:59;99695.59;;;17.60;70.51
84888;BME280;75150;54.494;18.518;2024-02-26T07:44:00;99695.94;;;17.56;70.47
84888;BME280;75150;54.494;18.518;2024-02-26T07:46:03;99688.84;;;17.78;69.34
84888;BME280;75150;54.494;18.518;2024-02-26T07:48:05;99691.72;;;18.06;69.19
84888;BME280;75150;54.494;18.518;2024-02-26T07:50:08;99699.88;;;18.34;68.07
84888;BME280;75150;54.494;18.518;2024-02-26T07:52:09;99707.69;;;18.65;67.82
84888;BME280;75150;54.494;18.518;2024-02-26T07:54:11;99698.72;;;19.01;66.74
84888;BME280;75150;54.494;18.518;2024-02-26T07:56:12;99700.13;;;19.46;66.10
84888;BME280;75150;54.494;18.518;2024-02-26T07:58:13;99705.84;;;19.93;65.58
84888;BME280;75150;54.494;18.518;2024-02-26T08:00:15;99712.22;;;20.33;64.48
84888;BME280;75150;54.494;18.518;2024-02-26T08:02:18;99712.34;;;20.66;62.88
84888;BME280;75150;54.494;18.518;2024-02-26T08:04:19;99715.50;;;21.02;63.22
84888;BME280;75150;54.494;18.518;2024-02-26T08:06:21;99716.16;;;21.31;62.57
84888;BME280;75150;54.494;18.518;2024-02-26T08:08:22;99719.06;;;21.29;60.96
84888;BME280;75150;54.494;18.518;2024-02-26T08:10:24;99725.88;;;21.19;60.62
84888;BME280;75150;54.494;18.518;2024-02-26T08:12:25;99721.75;;;21.23;60.61
84888;BME280;75150;54.494;18.518;2024-02-26T08:14:27;99730.06;;;21.28;59.06
84888;BME280;75150;54.494;18.518;2024-02-26T08:16:28;99732.66;;;20.82;58.12
84888;BME280;75150;54.494;18.518;2024-02-26T08:18:31;99731.88;;;20.33;56.70
84888;BME280;75150;54.494;18.518;2024-02-26T08:20:32;99735.06;;;20.43;57.52
84888;BME280;75150;54.494;18.518;2024-02-26T08:22:34;99733.09;;;20.72;57.22
84888;BME280;75150;54.494;18.518;2024-02-26T08:24:35;99736.41;;;20.74;56.82
84888;BME280;75150;54.494;18.518;2024-02-26T08:26:36;99743.75;;;20.45;56.20
84888;BME280;75150;54.494;18.518;2024-02-26T08:28:38;99739.75;;;19.38;56.05
84888;BME280;75150;54.494;18.518;2024-02-26T08:30:39;99741.03;;;18.27;57.91
84888;BME280;75150;54.494;18.518;2024-02-26T08:32:41;99739.78;;;17.41;58.81
84888;BME280;75150;54.494;18.518;2024-02-26T08:34:44;99744.63;;;16.46;59.67
84888;BME280;75150;54.494;18.518;2024-02-26T08:36:45;99747.38;;;15.90;60.23
84888;BME280;75150;54.494;18.518;2024-02-26T08:38:46;99743.59;;;15.19;60.78
84888;BME280;75150;54.494;18.518;2024-02-26T08:40:48;99744.91;;;14.83;61.40
84888;BME280;75150;54.494;18.518;2024-02-26T08:42:50;99749.72;;;14.55;61.44
84888;BME280;75150;54.494;18.518;2024-02-26T08:44:51;99747.78;;;13.97;60.91
84888;BME280;75150;54.494;18.518;2024-02-26T08:46:52;99759.00;;;13.48;60.80
84888;BME280;75150;54.494;18.518;2024-02-26T08:48:54;99766.78;;;12.88;60.15
84888;BME280;75150;54.494;18.518;2024-02-26T08:50:56;99768.25;;;12.55;60.29
84888;BME280;75150;54.494;18.518;2024-02-26T08:52:58;99759.50;;;12.18;60.10
84888;BME280;75150;54.494;18.518;2024-02-26T08:54:59;99761.56;;;11.96;60.78
84888;BME280;75150;54.494;18.518;2024-02-26T08:57:01;99767.47;;;11.90;61.25
84888;BME280;75150;54.494;18.518;2024-02-26T08:59:02;99767.88;;;11.86;61.38
84888;BME280;75150;54.494;18.518;2024-02-26T09:01:03;99762.72;;;11.84;61.63
84888;BME280;75150;54.494;18.518;2024-02-26T09:03:05;99766.53;;;11.62;60.13
84888;BME280;75150;54.494;18.518;2024-02-26T09:05:07;99774.69;;;11.41;61.62
84888;BME280;75150;54.494;18.518;2024-02-26T09:07:10;99774.16;;;11.28;60.64
84888;BME280;75150;54.494;18.518;2024-02-26T09:09:11;99764.09;;;11.22;61.50
84888;BME280;75150;54.494;18.518;2024-02-26T09:11:13;99773.16;;;11.20;61.39
84888;BME280;75150;54.494;18.518;2024-02-26T09:13:14;99778.06;;;11.05;62.05
84888;BME280;75150;54.494;18.518;2024-02-26T09:15:15;99777.22;;;11.04;62.12
84888;BME280;75150;54.494;18.518;2024-02-26T09:17:17;99783.63;;;11.11;62.08
84888;BME280;75150;54.494;18.518;2024-02-26T09:19:18;99780.28;;;11.19;62.12
84888;BME280;75150;54.494;18.518;2024-02-26T09:21:20;99786.44;;;11.29;62.57
84888;BME280;75150;54.494;18.518;2024-02-26T09:23:22;99785.31;;;11.41;62.89
84888;BME280;75150;54.494;18.518;2024-02-26T09:25:24;99792.53;;;11.49;62.42
84888;BME280;75150;54.494;18.518;2024-02-26T09:27:25;99792.25;;;11.52;62.96
84888;BME280;75150;54.494;18.518;2024-02-26T09:29:26;99799.19;;;11.63;63.04
84888;BME280;75150;54.494;18.518;2024-02-26T09:31:28;99792.13;;;11.54;62.31
84888;BME280;75150;54.494;18.518;2024-02-26T09:33:29;99799.09;;;11.55;62.28
84888;BME280;75150;54.494;18.518;2024-02-26T09:35:31;99789.31;;;11.55;62.36
84888;BME280;75150;54.494;18.518;2024-02-26T09:37:33;99790.00;;;11.57;62.86
84888;BME280;75150;54.494;18.518;2024-02-26T09:39:36;99797.84;;;11.49;62.93
84888;BME280;75150;54.494;18.518;2024-02-26T09:41:37;99796.84;;;11.50;62.61
84888;BME280;75150;54.494;18.518;2024-02-26T09:43:43;99802.28;;;11.68;62.27
84888;BME280;75150;54.494;18.518;2024-02-26T09:45:45;99795.97;;;11.79;58.86
84888;BME280;75150;54.494;18.518;2024-02-26T09:47:48;99796.69;;;11.81;61.28
84888;BME280;75150;54.494;18.518;2024-02-26T09:49:51;99798.09;;;11.75;61.40
84888;BME280;75150;54.494;18.518;2024-02-26T09:51:54;99798.78;;;11.77;61.72
84888;BME280;75150;54.494;18.518;2024-02-26T09:53:59;99800.03;;;11.83;61.07
84888;BME280;75150;54.494;18.518;2024-02-26T09:56:04;99802.81;;;11.91;60.80
84888;BME280;75150;54.494;18.518;2024-02-26T09:58:05;99797.59;;;11.99;61.02
84888;BME280;75150;54.494;18.518;2024-02-26T10:00:10;99796.03;;;12.06;59.89
84888;BME280;75150;54.494;18.518;2024-02-26T10:02:15;99793.53;;;12.05;56.53
84888;BME280;75150;54.494;18.518;2024-02-26T10:04:20;99797.22;;;11.94;59.97
84888;BME280;75150;54.494;18.518;2024-02-26T10:06:22;99793.75;;;11.84;58.92
84888;BME280;75150;54.494;18.518;2024-02-26T10:08:23;99798.94;;;11.76;59.79
84888;BME280;75150;54.494;18.518;2024-02-26T10:10:28;99802.97;;;11.70;60.13
84888;BME280;75150;54.494;18.518;2024-02-26T10:12:31;99805.06;;;11.86;60.03
84888;BME280;75150;54.494;18.518;2024-02-26T10:14:33;99809.50;;;11.95;60.29
84888;BME280;75150;54.494;18.518;2024-02-26T10:16:34;99809.19;;;11.98;60.82
84888;BME280;75150;54.494;18.518;2024-02-26T10:18:46;99813.44;;;11.91;58.15
84888;BME280;75150;54.494;18.518;2024-02-26T10:20:59;99811.91;;;11.79;58.36
84888;BME280;75150;54.494;18.518;2024-02-26T10:23:02;99814.97;;;11.84;60.88
84888;BME280;75150;54.494;18.518;2024-02-26T10:25:05;99816.38;;;11.88;57.94
84888;BME280;75150;54.494;18.518;2024-02-26T10:27:06;99814.28;;;11.91;59.77
84888;BME280;75150;54.494;18.518;2024-02-26T10:29:11;99822.91;;;12.03;59.74
84888;BME280;75150;54.494;18.518;2024-02-26T10:31:13;99818.91;;;11.89;59.14
84888;BME280;75150;54.494;18.518;2024-02-26T10:33:15;99817.63;;;11.74;57.98
84888;BME280;75150;54.494;18.518;2024-02-26T10:35:17;99819.88;;;11.69;59.81
84888;BME280;75150;54.494;18.518;2024-02-26T10:37:19;99811.94;;;11.59;58.37
84888;BME280;75150;54.494;18.518;2024-02-26T10:39:20;99812.53;;;11.34;58.88
84888;BME280;75150;54.494;18.518;2024-02-26T10:41:22;99821.16;;;11.36;59.87
84888;BME280;75150;54.494;18.518;2024-02-26T10:43:25;99814.47;;;11.32;60.51